Springfield, CO

3:03 PM MDT on May 29, 2015 (GMT -0600)
Shaw | | Change Station
CLOSE
Current Station
Personal Weather Station
Location: Granada, CO
Elevation: 4121 ft
Nearby Weather Stations

Elev 4121 ft 37.66 °N, 102.46 °W | Updated 1 minute ago

Partly Cloudy
Partly Cloudy
71.2 °F
Feels Like 77 °F
N
11.0
Wind Variable Wind from North
Gusts 14.0 mph

Today
High -- | Low -- °F
--% Chance of Precip.
Yesterday
High -- | Low -- °F
Precip. -- in
5:32 AM 8:03 PM
Waxing Gibbous, 86% visible
Pressure 29.97 in
Visibility 9.0 miles
Clouds Scattered Clouds 6000 ft
Mostly Cloudy 8000 ft
Heat Index 77 °F
Dew Point 51 °F
Humidity 49%
Rainfall 0.00 in
Snow Depth Not available.
UV 5 out of 12
Pollen 6.70 out of 12
Air Quality Not available.
Flu Activity Sporadic
METAR KLAA 292053Z AUTO 02013KT 9SM SCT060 BKN080 24/09 A3008 RMK AO2 SLP149 T02440094 58007 TSNO

More Conditions Fewer Conditions

Pressure 29.97 in
Visibility 9.0 miles
Clouds Scattered Clouds 6000 ft
Mostly Cloudy 8000 ft
Heat Index 77 °F
Dew Point 51 °F
Humidity 49%
Rainfall 0.00 in
Snow Depth Not available.
UV 5 out of 12
Pollen 6.70 out of 12
Air Quality Not available.
Flu Activity Sporadic
METAR KLAA 292053Z AUTO 02013KT 9SM SCT060 BKN080 24/09 A3008 RMK AO2 SLP149 T02440094 58007 TSNO

More Conditions Fewer Conditions

10-Day Weather Forecast

Almanac

Astronomy

May. 29, 2015 Rise Set
Actual Time
Civil Twilight
Nautical Twilight
Astronomical Twilight
Moon
Length of Visible Light
Length of Day
Tomorrow will be .
, % of the Moon is Illuminated

Today's Extremes

State Highs State Lows

Community

WunderPhotos

Upload Photos

1,825,358 photos uploaded!

WunderBlogs® & News

Nearby

Air Quality

  Air Quality AQ Index Pollutant
Not available.

Snow Depth

Station Depth Elevation

Earthquake Activity

City Distance Mag. Time & Date
Minimum magnitude displayed is 2.5.

Coastal Water Temperatures

Place Temperature

Stations

Nearby Weather Stations

Station Location Temp. Windchill Dew Point Humidity Wind Precip. Elev Updated Type